Time;durP1;ratioP1;P1;durP2;ratioP2;P2;SDS_P1;SDS_P2;PMS_P1;PMS_P2;Temp;Humidity;BMP_temperature;BMP_pressure;BME280_temperature;BME280_humidity;BME280_pressure;Samples;Min_cycle;Max_cycle;Signal;HPM_P1;HPM_P2
2021/01/18 00:01:36;;;;;;;334.48;93.22;;;115.80;2176.00;;;;;;4821609;29;20204;-76
2021/01/18 00:04:02;;;;;;;247.90;86.45;;;115.80;2176.00;;;;;;4821888;29;20164;-77
2021/01/18 00:06:29;;;;;;;264.60;89.97;;;115.80;2176.00;;;;;;4822092;29;20066;-78
2021/01/18 00:08:55;;;;;;;176.48;74.85;;;115.70;2176.00;;;;;;4823040;29;20041;-76
2021/01/18 00:11:22;;;;;;;151.02;75.07;;;115.80;2176.00;;;;;;4821595;29;20407;-77
2021/01/18 00:13:49;;;;;;;186.30;84.32;;;115.70;2176.00;;;;;;4822024;29;20113;-77
2021/01/18 00:16:16;;;;;;;141.23;65.30;;;115.70;2176.00;;;;;;4821674;29;20091;-76
2021/01/18 00:18:42;;;;;;;214.85;76.57;;;115.60;2176.00;;;;;;4820729;29;20049;-76
2021/01/18 00:21:08;;;;;;;228.30;83.53;;;115.80;2176.00;;;;;;4821989;29;20034;-76
2021/01/18 00:23:41;;;;;;;127.88;63.75;;;115.80;2176.00;;;;;;4821532;29;20050;-76
2021/01/18 00:26:07;;;;;;;156.35;68.45;;;115.80;2176.00;;;;;;4821854;29;20054;-76
2021/01/18 00:28:34;;;;;;;210.05;76.00;;;115.80;2176.00;;;;;;4821536;29;20461;-76
2021/01/18 00:31:01;;;;;;;179.15;75.57;;;115.80;2176.00;;;;;;4823214;29;20027;-76
2021/01/18 00:33:27;;;;;;;213.13;77.15;;;115.90;2176.00;;;;;;4821114;29;20055;-76
2021/01/18 00:35:53;;;;;;;283.38;83.78;;;115.90;2176.00;;;;;;4822601;29;20038;-76
2021/01/18 00:38:19;;;;;;;235.18;75.82;;;116.00;2176.00;;;;;;4822738;29;20027;-76
2021/01/18 00:40:44;;;;;;;204.48;73.88;;;116.00;2176.00;;;;;;4822004;29;20030;-76
2021/01/18 00:43:10;;;;;;;231.93;76.63;;;140.80;2176.00;;;;;;4821409;29;20198;-76
2021/01/18 00:45:36;;;;;;;306.75;84.97;;;140.80;2176.00;;;;;;4821161;29;20090;-76
2021/01/18 00:48:02;;;;;;;325.75;93.25;;;140.90;2176.00;;;;;;4821683;29;20132;-76
2021/01/18 00:50:30;;;;;;;315.70;91.82;;;140.90;2176.00;;;;;;4822650;29;20030;-76
2021/01/18 00:52:57;;;;;;;265.27;85.55;;;141.00;2176.00;;;;;;4823101;29;20027;-75
2021/01/18 00:55:24;;;;;;;239.55;88.18;;;141.10;2176.00;;;;;;4821293;29;20083;-75
2021/01/18 00:57:50;;;;;;;163.38;84.45;;;141.20;2176.00;;;;;;4821859;29;20121;-75
2021/01/18 01:00:21;;;;;;;152.93;73.57;;;141.10;2176.00;;;;;;4820514;29;20042;-75
2021/01/18 01:02:49;;;;;;;149.18;76.75;;;141.20;2176.00;;;;;;4820467;29;20390;-75
2021/01/18 01:05:18;;;;;;;153.65;78.13;;;141.30;2176.00;;;;;;4822435;29;20115;-76
2021/01/18 01:07:49;;;;;;;153.93;77.25;;;141.40;2176.00;;;;;;4820845;29;20125;-75
2021/01/18 01:10:20;;;;;;;171.48;69.80;;;141.50;2176.00;;;;;;4822415;29;20479;-75
2021/01/18 01:12:45;;;;;;;188.40;80.65;;;141.70;2176.00;;;;;;4822088;29;20113;-75
2021/01/18 01:15:13;;;;;;;193.50;78.28;;;166.40;2176.00;;;;;;4820963;29;20137;-77
2021/01/18 01:17:45;;;;;;;210.02;89.22;;;166.70;2176.00;;;;;;4839609;29;20034;-77
2021/01/18 01:20:13;;;;;;;193.20;80.43;;;166.80;2176.00;;;;;;4839358;29;20041;-76
2021/01/18 01:22:39;;;;;;;230.80;83.63;;;166.90;2176.00;;;;;;4840462;29;20407;-77
2021/01/18 01:25:10;;;;;;;266.45;87.47;;;167.00;2176.00;;;;;;4839270;29;20141;-76
2021/01/18 01:27:37;;;;;;;220.77;79.72;;;167.20;2176.00;;;;;;4839235;29;20086;-77
2021/01/18 01:30:10;;;;;;;184.45;68.50;;;167.30;2176.00;;;;;;4839047;29;20105;-76
2021/01/18 01:32:41;;;;;;;169.63;63.30;;;167.20;2176.00;;;;;;4838723;29;20030;-76
2021/01/18 01:35:08;;;;;;;215.45;65.93;;;167.00;2176.00;;;;;;4840780;29;20045;-76
2021/01/18 01:37:35;;;;;;;280.13;81.38;;;167.10;2176.00;;;;;;4839088;29;20512;-77
2021/01/18 01:40:02;;;;;;;241.50;78.03;;;167.20;2176.00;;;;;;4840787;29;20029;-76
2021/01/18 01:42:27;;;;;;;318.13;95.07;;;192.00;2176.00;;;;;;4840133;29;20125;-76
2021/01/18 01:44:53;;;;;;;278.63;81.47;;;167.30;2176.00;;;;;;4840824;29;20569;-76
2021/01/18 01:47:46;;;;;;;256.80;80.55;;;192.00;2176.00;;;;;;4843164;29;20037;-76
2021/01/18 01:50:24;;;;;;;322.88;90.80;;;192.10;2176.00;;;;;;4842130;29;20030;-76
2021/01/18 01:52:56;;;;;;;215.77;77.55;;;192.10;2176.00;;;;;;4842542;29;20122;-76
2021/01/18 01:55:32;;;;;;;321.65;82.72;;;192.00;2176.00;;;;;;4843166;29;20042;-76
2021/01/18 01:58:00;;;;;;;234.93;75.30;;;192.10;2176.00;;;;;;4841954;29;20033;-75
2021/01/18 02:00:36;;;;;;;285.83;83.53;;;192.10;2176.00;;;;;;4842185;29;20062;-75
2021/01/18 02:03:14;;;;;;;296.88;88.57;;;192.00;2176.00;;;;;;4841774;29;20041;-77
2021/01/18 02:05:40;;;;;;;303.73;81.30;;;192.10;2176.00;;;;;;4841281;29;20536;-76
2021/01/18 02:08:07;;;;;;;247.60;78.78;;;192.00;2176.00;;;;;;4843559;29;20495;-76
2021/01/18 02:10:34;;;;;;;335.60;98.28;;;167.20;2176.00;;;;;;4841507;29;20033;-76
2021/01/18 02:13:05;;;;;;;206.77;66.65;;;192.00;2176.00;;;;;;4842430;29;20037;-76
2021/01/18 02:15:50;;;;;;;199.63;68.43;;;192.00;2176.00;;;;;;4843077;29;20070;-76
2021/01/18 02:19:02;;;;;;;210.73;74.75;;;167.30;2176.00;;;;;;4842860;29;20034;-76
2021/01/18 02:22:01;;;;;;;137.02;57.72;;;167.30;2176.00;;;;;;4753358;30;20512;-76
2021/01/18 02:24:46;;;;;;;118.15;57.50;;;167.10;2176.00;;;;;;4753916;30;20043;-76
2021/01/18 02:27:27;;;;;;;116.38;51.50;;;167.10;2176.00;;;;;;4768825;30;20040;-75
2021/01/18 02:30:29;;;;;;;116.80;51.88;;;167.00;2176.00;;;;;;4753637;30;20059;-75
2021/01/18 02:33:18;;;;;;;116.60;54.17;;;166.90;2176.00;;;;;;4768154;30;20042;-75
2021/01/18 02:36:12;;;;;;;96.97;47.90;;;166.80;2176.00;;;;;;4753678;30;20036;-77
2021/01/18 02:38:55;;;;;;;83.97;46.92;;;166.90;2176.00;;;;;;4768414;30;20509;-77
2021/01/18 02:41:48;;;;;;;106.93;52.30;;;166.90;2176.00;;;;;;4768773;30;20036;-76
2021/01/18 02:44:18;;;;;;;86.15;45.10;;;167.00;2176.00;;;;;;4753105;30;20047;-77
2021/01/18 02:46:46;;;;;;;95.72;45.75;;;167.00;2176.00;;;;;;4753558;30;20044;-77
2021/01/18 02:49:13;;;;;;;96.32;47.22;;;167.00;2176.00;;;;;;4753755;30;20032;-76
2021/01/18 02:52:03;;;;;;;84.78;46.92;;;167.00;2176.00;;;;;;4790811;29;20116;-76
2021/01/18 02:54:29;;;;;;;122.68;50.30;;;166.90;2176.00;;;;;;4842428;29;20064;-77
2021/01/18 02:56:57;;;;;;;93.40;48.53;;;166.90;2176.00;;;;;;4841787;29;20030;-76
2021/01/18 02:59:23;;;;;;;159.68;58.05;;;166.80;2176.00;;;;;;4842261;29;20034;-76
2021/01/18 03:02:13;;;;;;;144.88;52.50;;;166.80;2176.00;;;;;;4841668;29;20037;-77
2021/01/18 03:04:42;;;;;;;152.55;58.53;;;166.80;2176.00;;;;;;4842068;29;20073;-76
2021/01/18 03:07:24;;;;;;;160.60;57.90;;;166.70;2176.00;;;;;;4841420;29;20061;-77
2021/01/18 03:10:21;;;;;;;130.27;53.25;;;166.70;2176.00;;;;;;4841797;29;20036;-77
2021/01/18 03:12:56;;;;;;;224.18;72.68;;;166.60;2176.00;;;;;;4842696;29;20481;-77
2021/01/18 03:15:27;;;;;;;296.40;79.13;;;166.70;2176.00;;;;;;4840885;29;20410;-76
2021/01/18 03:17:57;;;;;;;256.48;74.53;;;166.80;2176.00;;;;;;4841139;29;20058;-75
2021/01/18 03:20:24;;;;;;;399.63;95.07;;;166.70;2176.00;;;;;;4840975;29;20094;-77
2021/01/18 03:22:50;;;;;;;291.27;77.97;;;166.80;2176.00;;;;;;4841003;29;20064;-76
2021/01/18 03:25:16;;;;;;;305.92;78.82;;;166.70;2176.00;;;;;;4841284;29;20116;-76
2021/01/18 03:27:53;;;;;;;292.23;81.30;;;166.70;2176.00;;;;;;4840834;29;20486;-76
2021/01/18 03:30:23;;;;;;;241.30;76.80;;;166.70;2176.00;;;;;;4841291;29;20053;-76
2021/01/18 03:32:55;;;;;;;189.23;66.03;;;166.70;2176.00;;;;;;4840482;29;20037;-76
2021/01/18 03:35:21;;;;;;;263.92;80.05;;;166.60;2176.00;;;;;;4842055;29;20034;-76
2021/01/18 03:37:55;;;;;;;294.80;88.78;;;166.90;2176.00;;;;;;4844068;29;20093;-77
2021/01/18 03:40:21;;;;;;;243.07;75.35;;;166.70;2176.00;;;;;;4843905;29;20030;-77
2021/01/18 03:42:58;;;;;;;231.73;86.82;;;166.60;2176.00;;;;;;4844244;29;20022;-76
2021/01/18 03:45:26;;;;;;;315.63;97.55;;;166.60;2176.00;;;;;;4842210;29;20057;-76
2021/01/18 03:47:52;;;;;;;284.20;88.68;;;166.60;2176.00;;;;;;4843118;29;20501;-77
2021/01/18 03:50:18;;;;;;;257.63;81.25;;;166.70;2176.00;;;;;;4840080;29;20026;-76
2021/01/18 03:52:48;;;;;;;243.02;79.38;;;166.60;2176.00;;;;;;4841345;29;20915;-76
2021/01/18 03:55:14;;;;;;;222.35;75.30;;;141.70;2176.00;;;;;;4841793;29;20077;-76
2021/01/18 03:57:44;;;;;;;207.60;68.90;;;166.40;2176.00;;;;;;4841107;29;20113;-76
2021/01/18 04:00:10;;;;;;;155.95;61.60;;;166.50;2176.00;;;;;;4841502;29;20034;-76
2021/01/18 04:02:35;;;;;;;179.93;66.90;;;166.40;2176.00;;;;;;4841153;29;20394;-76
2021/01/18 04:05:01;;;;;;;260.67;81.57;;;166.40;2176.00;;;;;;4841182;29;20042;-75
2021/01/18 04:07:27;;;;;;;208.23;73.85;;;166.40;2176.00;;;;;;4840564;29;20105;-75
2021/01/18 04:09:53;;;;;;;166.50;68.13;;;141.60;2176.00;;;;;;4841390;29;20036;-76
2021/01/18 04:12:18;;;;;;;169.18;72.85;;;141.60;2176.00;;;;;;4840648;29;20405;-76
2021/01/18 04:14:45;;;;;;;145.77;66.82;;;141.50;2176.00;;;;;;4840192;29;20030;-76
2021/01/18 04:17:11;;;;;;;126.30;55.63;;;141.50;2176.00;;;;;;4841646;29;20033;-76
2021/01/18 04:19:37;;;;;;;113.47;55.58;;;141.50;2176.00;;;;;;4839541;29;20566;-76
2021/01/18 04:22:06;;;;;;;113.15;51.45;;;141.50;2176.00;;;;;;4841197;29;20034;-76
2021/01/18 04:24:33;;;;;;;103.85;55.08;;;141.40;2176.00;;;;;;4839239;29;20078;-76
2021/01/18 04:26:59;;;;;;;100.97;52.65;;;141.50;2176.00;;;;;;4841529;29;20562;-76
2021/01/18 04:29:25;;;;;;;99.65;52.95;;;141.40;2176.00;;;;;;4839492;29;20117;-76
2021/01/18 04:31:51;;;;;;;97.13;48.88;;;141.60;2176.00;;;;;;4839480;29;20049;-76
2021/01/18 04:34:16;;;;;;;83.50;46.42;;;141.40;2176.00;;;;;;4840693;29;20034;-76
2021/01/18 04:36:42;;;;;;;89.35;47.17;;;141.40;2176.00;;;;;;4841364;29;20505;-76
2021/01/18 04:39:09;;;;;;;81.57;45.45;;;141.40;2176.00;;;;;;4840593;29;20086;-76
2021/01/18 04:41:36;;;;;;;79.90;45.28;;;141.40;2176.00;;;;;;4839339;29;20456;-75
2021/01/18 04:44:04;;;;;;;83.22;43.85;;;141.40;2176.00;;;;;;4839347;29;20060;-75
2021/01/18 04:46:36;;;;;;;82.32;42.92;;;141.40;2176.00;;;;;;4840016;29;20030;-76
2021/01/18 04:49:02;;;;;;;88.32;44.00;;;141.30;2176.00;;;;;;4840632;29;20038;-76
2021/01/18 04:51:39;;;;;;;84.20;43.55;;;141.40;2176.00;;;;;;4839090;29;20041;-76
2021/01/18 04:54:16;;;;;;;71.97;36.80;;;141.40;2176.00;;;;;;4839980;29;20038;-76
2021/01/18 04:56:44;;;;;;;82.15;42.13;;;141.40;2176.00;;;;;;4841056;29;20045;-76
2021/01/18 04:59:17;;;;;;;80.15;44.65;;;141.40;2176.00;;;;;;4839369;29;20914;-75
2021/01/18 05:01:46;;;;;;;95.63;49.53;;;141.40;2176.00;;;;;;4840970;29;20034;-75
2021/01/18 05:04:21;;;;;;;105.28;54.15;;;141.40;2176.00;;;;;;4838699;29;20145;-74
2021/01/18 05:06:54;;;;;;;99.18;51.42;;;141.50;2176.00;;;;;;4840583;29;20034;-75
2021/01/18 05:09:24;;;;;;;85.85;42.13;;;141.50;2176.00;;;;;;4839780;29;20034;-75
2021/01/18 05:11:51;;;;;;;85.78;44.75;;;141.50;2176.00;;;;;;4840555;29;20022;-76
2021/01/18 05:14:17;;;;;;;82.57;44.58;;;141.50;2176.00;;;;;;4841063;29;20486;-75
2021/01/18 05:16:57;;;;;;;84.35;44.00;;;141.50;2176.00;;;;;;4840084;29;20130;-76
2021/01/18 05:19:25;;;;;;;76.25;39.17;;;141.40;2176.00;;;;;;4840176;29;20394;-75
2021/01/18 05:21:51;;;;;;;78.97;37.13;;;141.40;2176.00;;;;;;4843285;29;20026;-76
2021/01/18 05:24:18;;;;;;;66.55;35.25;;;141.40;2176.00;;;;;;4843797;29;20030;-75
2021/01/18 05:27:00;;;;;;;75.97;41.05;;;141.40;2176.00;;;;;;4842988;29;20026;-75
2021/01/18 05:29:30;;;;;;;75.18;38.53;;;141.40;2176.00;;;;;;4843533;29;20029;-75
2021/01/18 05:31:55;;;;;;;85.90;43.58;;;141.40;2176.00;;;;;;4843637;29;20022;-75
2021/01/18 05:34:26;;;;;;;85.82;45.95;;;141.50;2176.00;;;;;;4844151;29;20094;-75
2021/01/18 05:36:52;;;;;;;78.53;43.25;;;141.50;2176.00;;;;;;4842439;29;20053;-75
2021/01/18 05:39:21;;;;;;;102.20;51.47;;;141.50;2176.00;;;;;;4844298;29;20025;-75
2021/01/18 05:41:48;;;;;;;99.10;51.30;;;141.50;2176.00;;;;;;4843479;29;20037;-75
2021/01/18 05:44:14;;;;;;;101.13;53.13;;;141.50;2176.00;;;;;;4843887;29;20036;-76
2021/01/18 05:46:42;;;;;;;102.68;52.95;;;141.50;2176.00;;;;;;4842182;29;20105;-76
2021/01/18 05:49:10;;;;;;;91.35;45.15;;;141.50;2176.00;;;;;;4843699;29;20475;-76
2021/01/18 05:51:37;;;;;;;78.72;43.70;;;141.50;2176.00;;;;;;4843380;29;20026;-76
2021/01/18 05:54:04;;;;;;;84.55;44.70;;;141.50;2176.00;;;;;;4843337;29;20030;-76
2021/01/18 05:56:44;;;;;;;81.32;43.72;;;141.50;2176.00;;;;;;4843610;29;20030;-75
2021/01/18 05:59:17;;;;;;;95.35;48.17;;;141.50;2176.00;;;;;;4843162;29;20033;-76
2021/01/18 06:01:44;;;;;;;121.18;55.92;;;141.50;2176.00;;;;;;4842437;29;20041;-75
2021/01/18 06:04:16;;;;;;;92.43;48.70;;;141.50;2176.00;;;;;;4842874;29;20050;-75
2021/01/18 06:06:53;;;;;;;114.45;55.55;;;141.50;2176.00;;;;;;4843075;29;20090;-75
2021/01/18 06:09:20;;;;;;;109.25;50.53;;;141.50;2176.00;;;;;;4842363;29;20054;-75
2021/01/18 06:11:45;;;;;;;104.32;51.78;;;141.60;2176.00;;;;;;4841312;29;20487;-76
2021/01/18 06:14:11;;;;;;;82.20;42.80;;;141.60;2176.00;;;;;;4843634;29;20034;-76
2021/01/18 06:16:39;;;;;;;91.13;44.80;;;141.60;2176.00;;;;;;4841660;29;20069;-76
2021/01/18 06:19:10;;;;;;;92.13;48.25;;;141.60;2176.00;;;;;;4843366;29;20040;-76
2021/01/18 06:21:41;;;;;;;98.82;54.88;;;141.60;2176.00;;;;;;4842090;29;20561;-75
2021/01/18 06:24:23;;;;;;;104.05;49.35;;;141.60;2176.00;;;;;;4841578;29;20491;-75
2021/01/18 06:26:48;;;;;;;96.78;47.92;;;141.50;2176.00;;;;;;4843278;29;20041;-75
2021/01/18 06:29:35;;;;;;;81.28;39.80;;;141.50;2176.00;;;;;;4842817;29;20132;-75
2021/01/18 06:32:00;;;;;;;79.68;43.45;;;141.40;2176.00;;;;;;4842643;29;20030;-75
2021/01/18 06:34:29;;;;;;;87.40;46.17;;;141.40;2176.00;;;;;;4841507;29;20093;-75
2021/01/18 06:36:56;;;;;;;99.45;52.30;;;141.50;2176.00;;;;;;4842634;29;20030;-76
2021/01/18 06:39:30;;;;;;;97.60;49.28;;;141.50;2176.00;;;;;;4841907;29;20037;-75
2021/01/18 06:42:01;;;;;;;83.38;44.38;;;141.60;2176.00;;;;;;4842648;29;20037;-76
2021/01/18 06:44:34;;;;;;;89.68;47.95;;;141.60;2176.00;;;;;;4840996;29;20120;-75
2021/01/18 06:46:59;;;;;;;83.28;46.05;;;141.60;2176.00;;;;;;4841553;29;20030;-75
2021/01/18 06:49:27;;;;;;;73.20;43.28;;;141.60;2176.00;;;;;;4842340;29;20029;-75
2021/01/18 06:51:57;;;;;;;79.20;44.30;;;141.60;2176.00;;;;;;4841530;29;20030;-75
2021/01/18 06:54:29;;;;;;;83.75;44.50;;;141.50;2176.00;;;;;;4842315;29;20030;-75
2021/01/18 06:57:19;;;;;;;77.65;42.03;;;141.50;2176.00;;;;;;4842758;29;20130;-75
2021/01/18 06:59:52;;;;;;;73.03;42.83;;;141.40;2176.00;;;;;;4841440;29;20029;-75
2021/01/18 07:02:24;;;;;;;64.88;40.50;;;141.40;2176.00;;;;;;4842141;29;20041;-76
2021/01/18 07:04:51;;;;;;;78.78;45.92;;;141.20;2176.00;;;;;;4841964;29;20038;-75
2021/01/18 07:07:29;;;;;;;71.28;40.55;;;141.20;2176.00;;;;;;4841361;29;20394;-76
2021/01/18 07:10:08;;;;;;;75.50;45.05;;;141.20;2176.00;;;;;;4840851;29;20030;-76
2021/01/18 07:12:34;;;;;;;72.75;39.47;;;141.20;2176.00;;;;;;4842219;29;20026;-76
2021/01/18 07:15:06;;;;;;;80.75;47.60;;;141.10;2176.00;;;;;;4841892;29;20029;-76
2021/01/18 07:17:53;;;;;;;74.72;41.10;;;141.10;2176.00;;;;;;4840903;29;20174;-76
2021/01/18 07:20:24;;;;;;;71.07;42.55;;;141.10;2176.00;;;;;;4841163;29;20485;-76
2021/01/18 07:23:02;;;;;;;76.97;42.97;;;141.10;2176.00;;;;;;4840306;29;20026;-76
2021/01/18 07:25:34;;;;;;;75.10;44.42;;;141.10;2176.00;;;;;;4841472;29;20558;-75
2021/01/18 07:28:02;;;;;;;71.75;41.90;;;141.00;2176.00;;;;;;4841059;29;20158;-75
2021/01/18 07:30:35;;;;;;;77.78;40.83;;;141.00;2176.00;;;;;;4840076;29;20132;-74
2021/01/18 07:33:09;;;;;;;80.05;46.30;;;141.00;2176.00;;;;;;4841925;29;20150;-74
2021/01/18 07:35:36;;;;;;;77.55;45.78;;;141.00;2176.00;;;;;;4840055;29;20093;-74
2021/01/18 07:38:13;;;;;;;71.57;41.58;;;141.00;2176.00;;;;;;4840254;29;20102;-75
2021/01/18 07:40:40;;;;;;;71.80;41.47;;;140.90;2176.00;;;;;;4842058;29;20038;-75
2021/01/18 07:43:06;;;;;;;72.30;41.83;;;140.80;2176.00;;;;;;4839605;29;20034;-74
2021/01/18 07:45:32;;;;;;;75.88;44.25;;;140.90;2176.00;;;;;;4841545;29;20044;-74
2021/01/18 07:47:57;;;;;;;76.97;47.63;;;140.80;2176.00;;;;;;4839785;29;20030;-74
2021/01/18 07:50:30;;;;;;;97.07;55.25;;;116.10;2176.00;;;;;;4841482;29;20041;-75
2021/01/18 07:52:59;;;;;;;107.43;61.50;;;116.10;2176.00;;;;;;4841135;29;20086;-74
2021/01/18 07:55:25;;;;;;;116.68;64.57;;;140.80;2176.00;;;;;;4841226;29;20497;-74
2021/01/18 07:57:50;;;;;;;95.53;54.75;;;116.10;2176.00;;;;;;4841658;29;20029;-75
2021/01/18 08:00:19;;;;;;;97.15;55.25;;;116.10;2176.00;;;;;;4839806;29;20052;-74
2021/01/18 08:02:45;;;;;;;110.75;60.35;;;116.00;2176.00;;;;;;4841473;29;20498;-75
2021/01/18 08:05:25;;;;;;;116.53;62.42;;;116.10;2176.00;;;;;;4839580;29;20102;-74
2021/01/18 08:08:07;;;;;;;99.30;55.13;;;116.00;2176.00;;;;;;4841106;29;20022;-75
2021/01/18 08:10:51;;;;;;;98.15;54.15;;;115.90;2176.00;;;;;;4840262;29;20050;-75
2021/01/18 08:13:45;;;;;;;103.10;59.75;;;115.90;2176.00;;;;;;4839531;29;20060;-75
2021/01/18 08:16:21;;;;;;;84.57;52.92;;;115.90;2176.00;;;;;;4841099;29;20041;-75
2021/01/18 08:18:51;;;;;;;90.47;51.05;;;115.90;2150.40;;;;;;4840063;29;20066;-75
2021/01/18 08:21:35;;;;;;;82.07;51.65;;;116.00;2150.40;;;;;;4841231;29;20037;-75
2021/01/18 08:24:06;;;;;;;96.00;54.05;;;115.90;2176.00;;;;;;4840917;29;20153;-75
2021/01/18 08:26:50;;;;;;;83.65;50.30;;;115.90;2176.00;;;;;;4841831;29;20033;-76
2021/01/18 08:29:35;;;;;;;89.65;52.58;;;115.80;2150.40;;;;;;4841250;29;20064;-76
2021/01/18 08:32:30;;;;;;;80.85;47.22;;;115.60;2150.40;;;;;;4839954;29;20490;-78
2021/01/18 08:34:57;;;;;;;81.13;45.85;;;115.70;2124.80;;;;;;4841182;29;20521;-75
2021/01/18 08:37:25;;;;;;;69.72;43.85;;;115.60;2124.80;;;;;;4841252;29;20781;-75
2021/01/18 08:39:52;;;;;;;72.32;41.55;;;115.40;2124.80;;;;;;4840692;29;20033;-76
2021/01/18 08:42:26;;;;;;;79.15;45.20;;;115.40;2099.20;;;;;;4841029;29;20108;-75
2021/01/18 08:45:04;;;;;;;75.70;43.20;;;115.40;2124.80;;;;;;4840746;29;20394;-76
2021/01/18 08:47:45;;;;;;;81.13;46.75;;;115.20;2073.60;;;;;;4839754;29;20030;-76
2021/01/18 08:50:45;;;;;;;80.03;47.90;;;90.50;2124.80;;;;;;4840380;29;20041;-76
2021/01/18 08:53:32;;;;;;;93.85;52.40;;;90.30;2099.20;;;;;;4831555;29;20094;-76
2021/01/18 08:56:02;;;;;;;82.53;46.72;;;90.20;2073.60;;;;;;4831291;29;20038;-78
2021/01/18 08:58:35;;;;;;;67.68;41.38;;;90.00;2048.00;;;;;;4827101;29;20487;-76
2021/01/18 09:01:03;;;;;;;71.43;43.60;;;90.10;1996.80;;;;;;4826374;29;20038;-76
2021/01/18 09:03:28;;;;;;;68.68;40.95;;;89.90;2048.00;;;;;;4826816;29;20482;-77
2021/01/18 09:05:56;;;;;;;63.80;40.05;;;89.90;1945.60;;;;;;4835814;29;20106;-76
2021/01/18 09:08:23;;;;;;;78.75;44.60;;;89.80;1996.80;;;;;;4843727;29;20117;-77
2021/01/18 09:11:03;;;;;;;67.55;39.08;;;89.60;2022.40;;;;;;4834607;29;20035;-77
2021/01/18 09:13:33;;;;;;;60.33;37.35;;;64.80;1971.20;;;;;;4826680;29;20537;-77
2021/01/18 09:16:04;;;;;;;73.53;42.45;;;64.90;1945.60;;;;;;4829253;29;20054;-77
2021/01/18 09:18:29;;;;;;;70.60;40.92;;;64.70;1945.60;;;;;;4825860;29;20026;-77
2021/01/18 09:20:58;;;;;;;57.45;33.10;;;64.30;1945.60;;;;;;4830817;29;20124;-76
2021/01/18 09:23:27;;;;;;;64.82;36.30;;;64.30;1868.80;;;;;;4845009;29;20147;-76
2021/01/18 09:26:10;;;;;;;62.17;35.30;;;64.30;1868.80;;;;;;4842711;29;20038;-77
2021/01/18 09:28:36;;;;;;;52.10;31.67;;;64.30;1843.20;;;;;;4843560;29;20105;-79
2021/01/18 09:31:13;;;;;;;67.80;35.95;;;64.50;1868.80;;;;;;4843540;29;20478;-77
2021/01/18 09:33:45;;;;;;;63.28;36.00;;;64.80;1920.00;;;;;;4842848;29;20045;-77
2021/01/18 09:36:15;;;;;;;66.57;37.30;;;64.70;1920.00;;;;;;4842116;29;20038;-77
2021/01/18 09:38:43;;;;;;;64.63;34.40;;;64.60;1920.00;;;;;;4830321;29;20495;-76
2021/01/18 09:41:10;;;;;;;69.80;35.80;;;64.40;1868.80;;;;;;4826389;29;20061;-78
2021/01/18 09:43:36;;;;;;;68.47;38.33;;;64.10;1894.40;;;;;;4840140;29;20455;-75
2021/01/18 09:46:02;;;;;;;57.55;33.60;;;64.10;1868.80;;;;;;4843251;29;20086;-76
2021/01/18 09:48:28;;;;;;;61.92;35.83;;;64.10;1868.80;;;;;;4844701;29;20026;-77
2021/01/18 09:51:03;;;;;;;55.38;32.88;;;64.10;1843.20;;;;;;4843798;29;20030;-76
2021/01/18 09:53:30;;;;;;;55.65;32.72;;;39.30;1817.60;;;;;;4842523;29;20042;-76
2021/01/18 09:56:00;;;;;;;63.65;37.05;;;39.10;1817.60;;;;;;4843298;29;20402;-76
2021/01/18 09:58:38;;;;;;;68.10;36.63;;;39.00;1817.60;;;;;;4844066;29;20061;-76
2021/01/18 10:01:23;;;;;;;59.08;35.75;;;38.90;1792.00;;;;;;4843439;29;20093;-78
2021/01/18 10:03:53;;;;;;;56.38;33.10;;;38.80;1792.00;;;;;;4843713;29;20067;-79
2021/01/18 10:06:25;;;;;;;58.45;33.90;;;38.80;1766.40;;;;;;4843529;29;20030;-78
2021/01/18 10:08:54;;;;;;;57.38;34.35;;;38.80;1766.40;;;;;;4845196;29;20074;-81
2021/01/18 10:11:43;;;;;;;57.13;33.97;;;38.70;1766.40;;;;;;4846808;29;20034;-81
2021/01/18 10:14:23;;;;;;;58.40;35.03;;;38.50;1766.40;;;;;;4845386;29;20060;-80
2021/01/18 10:17:06;;;;;;;59.65;35.78;;;38.40;1740.80;;;;;;4844590;29;20073;-81
2021/01/18 10:19:34;;;;;;;59.65;36.40;;;38.50;1740.80;;;;;;4844898;29;20033;-81
2021/01/18 10:22:01;;;;;;;56.75;35.58;;;13.70;1766.40;;;;;;4843601;29;20073;-80
2021/01/18 10:24:28;;;;;;;55.97;33.00;;;38.50;1740.80;;;;;;4844024;29;20427;-81
2021/01/18 10:27:15;;;;;;;54.83;33.30;;;38.60;1740.80;;;;;;4844199;29;20034;-78
2021/01/18 10:29:42;;;;;;;53.63;33.00;;;38.60;1740.80;;;;;;4845041;29;20502;-78
2021/01/18 10:32:10;;;;;;;54.28;34.35;;;38.40;1715.20;;;;;;4845829;29;20030;-79
2021/01/18 10:34:36;;;;;;;65.22;37.00;;;38.50;1715.20;;;;;;4843481;29;20329;-79
2021/01/18 10:37:17;;;;;;;54.20;31.25;;;13.70;1715.20;;;;;;4844709;29;20034;-78
2021/01/18 10:39:49;;;;;;;60.65;35.55;;;13.60;1689.60;;;;;;4842573;29;20026;-77
2021/01/18 10:42:18;;;;;;;56.78;34.38;;;13.50;1715.20;;;;;;4843640;29;20051;-78
2021/01/18 10:44:58;;;;;;;53.70;32.25;;;13.30;1689.60;;;;;;4841275;29;20065;-77
2021/01/18 10:47:25;;;;;;;50.63;31.98;;;13.30;1664.00;;;;;;4836811;29;20030;-77
2021/01/18 10:49:58;;;;;;;56.70;32.33;;;13.00;1638.40;;;;;;4842814;29;20100;-76
2021/01/18 10:52:41;;;;;;;57.17;31.77;;;12.90;1638.40;;;;;;4841142;29;20108;-76
2021/01/18 10:55:11;;;;;;;56.08;33.45;;;13.00;1664.00;;;;;;4841495;29;20029;-77
2021/01/18 10:57:41;;;;;;;51.78;29.55;;;13.10;1689.60;;;;;;4842796;29;20034;-76
2021/01/18 11:00:21;;;;;;;54.67;33.63;;;12.90;1664.00;;;;;;4841154;29;20157;-77
2021/01/18 11:03:01;;;;;;;56.13;35.13;;;0.00;1689.60;;;;;;4839553;29;20037;-77
2021/01/18 11:05:37;;;;;;;50.15;31.20;;;0.20;1638.40;;;;;;4841258;29;20057;-77
2021/01/18 11:08:08;;;;;;;61.47;36.47;;;0.10;1638.40;;;;;;4840300;29;20038;-78
2021/01/18 11:10:42;;;;;;;48.75;31.70;;;0.00;1664.00;;;;;;4842392;29;20026;-77
2021/01/18 11:13:18;;;;;;;57.83;34.42;;;13.10;1689.60;;;;;;4841121;29;20040;-77
2021/01/18 11:15:45;;;;;;;70.03;41.15;;;13.30;1715.20;;;;;;4839842;29;20038;-77
2021/01/18 11:18:12;;;;;;;61.88;36.50;;;13.30;1740.80;;;;;;4840092;29;20068;-77
2021/01/18 11:20:39;;;;;;;62.35;35.22;;;13.20;1715.20;;;;;;4834812;29;20121;-77
2021/01/18 11:23:14;;;;;;;73.85;44.42;;;13.20;1740.80;;;;;;4837332;29;20435;-76
2021/01/18 11:25:40;;;;;;;56.50;35.38;;;13.30;1766.40;;;;;;4840723;29;20564;-76
2021/01/18 11:28:17;;;;;;;45.67;29.75;;;13.40;1766.40;;;;;;4840798;29;20066;-77
2021/01/18 11:30:43;;;;;;;51.10;30.95;;;13.40;1715.20;;;;;;4841006;29;20074;-77
2021/01/18 11:33:10;;;;;;;48.70;28.40;;;13.30;1740.80;;;;;;4838769;29;20083;-76
2021/01/18 11:35:36;;;;;;;51.95;30.17;;;13.20;1689.60;;;;;;4837348;29;20105;-78
2021/01/18 11:38:02;;;;;;;47.90;28.33;;;13.10;1689.60;;;;;;4841452;29;20498;-76
2021/01/18 11:40:28;;;;;;;48.80;29.75;;;13.00;1689.60;;;;;;4840376;29;20026;-77
2021/01/18 11:43:00;;;;;;;44.95;29.60;;;13.00;1715.20;;;;;;4840454;29;20483;-77
2021/01/18 11:45:27;;;;;;;49.15;29.58;;;13.00;1664.00;;;;;;4841508;29;20504;-76
2021/01/18 11:47:53;;;;;;;48.30;30.50;;;12.90;1689.60;;;;;;4842352;29;20062;-77
2021/01/18 11:50:18;;;;;;;50.55;30.15;;;13.00;1715.20;;;;;;4837268;29;20113;-76
2021/01/18 11:52:49;;;;;;;43.75;27.98;;;0.00;1689.60;;;;;;4840823;29;20374;-76
2021/01/18 11:55:17;;;;;;;47.10;28.98;;;0.40;1638.40;;;;;;4839641;29;20175;-79
2021/01/18 11:57:47;;;;;;;47.08;29.48;;;25.60;1587.20;;;;;;4842620;29;20505;-79
2021/01/18 12:00:22;;;;;;;44.53;27.77;;;25.90;1561.60;;;;;;4841229;29;20567;-79
2021/01/18 12:02:54;;;;;;;43.63;27.95;;;25.60;1587.20;;;;;;4840403;29;20050;-79
2021/01/18 12:05:22;;;;;;;40.03;25.02;;;25.90;1536.00;;;;;;4840946;29;20054;-79
2021/01/18 12:07:48;;;;;;;32.25;19.75;;;0.80;1587.20;;;;;;4840664;29;20154;-79
2021/01/18 12:10:14;;;;;;;39.22;23.88;;;0.50;1561.60;;;;;;4842500;29;20026;-79
2021/01/18 12:12:40;;;;;;;36.25;20.85;;;0.40;1561.60;;;;;;4840846;29;20428;-80
2021/01/18 12:15:06;;;;;;;30.55;20.17;;;0.40;1587.20;;;;;;4845325;29;20033;-80
2021/01/18 12:17:50;;;;;;;26.98;19.50;;;0.30;1561.60;;;;;;4842102;29;20026;-80
2021/01/18 12:20:19;;;;;;;35.13;23.08;;;0.20;1612.80;;;;;;4840799;29;20038;-80